Time;durP1;ratioP1;P1;durP2;ratioP2;P2;SDS_P1;SDS_P2;PMS_P1;PMS_P2;Temp;Humidity;BMP_temperature;BMP_pressure;BME280_temperature;BME280_humidity;BME280_pressure;Samples;Min_cycle;Max_cycle;Signal;HPM_P1;HPM_P2
2021/08/20 00:00:42;;;;;;;21.20;15.07;;;14.10;99.90;;;;;;4392403;32;20626;-67
2021/08/20 00:03:19;;;;;;;19.27;15.50;;;14.20;99.90;;;;;;4388883;32;20195;-67
2021/08/20 00:05:58;;;;;;;23.70;16.60;;;14.20;99.90;;;;;;4387446;32;20272;-65
2021/08/20 00:08:27;;;;;;;18.93;14.83;;;14.30;99.90;;;;;;4389618;32;20348;-68
2021/08/20 00:10:54;;;;;;;23.00;16.03;;;14.40;99.90;;;;;;4387618;32;20222;-66
2021/08/20 00:13:22;;;;;;;25.67;16.93;;;14.50;99.90;;;;;;4394724;32;20227;-65
2021/08/20 00:15:49;;;;;;;19.87;16.30;;;14.50;99.90;;;;;;4398572;32;20238;-64
2021/08/20 00:18:16;;;;;;;21.97;16.57;;;14.50;99.90;;;;;;4405028;32;20148;-67
2021/08/20 00:20:43;;;;;;;22.53;17.50;;;14.50;99.90;;;;;;4391050;32;20285;-67
2021/08/20 00:23:09;;;;;;;22.20;16.30;;;14.50;99.90;;;;;;4390020;32;20148;-66
2021/08/20 00:25:36;;;;;;;21.43;16.23;;;14.60;99.90;;;;;;4401557;32;20218;-66
2021/08/20 00:28:03;;;;;;;21.27;16.93;;;14.60;99.90;;;;;;4398010;32;20167;-65
2021/08/20 00:30:31;;;;;;;24.83;17.97;;;14.70;99.90;;;;;;4405695;32;20234;-67
2021/08/20 00:32:58;;;;;;;22.03;17.63;;;14.80;99.90;;;;;;4404685;32;20190;-66
2021/08/20 00:35:25;;;;;;;20.90;17.07;;;14.80;99.90;;;;;;4405186;32;20223;-65
2021/08/20 00:37:52;;;;;;;20.97;16.20;;;14.90;99.90;;;;;;4397551;32;20231;-66
2021/08/20 00:40:19;;;;;;;22.50;17.37;;;14.90;99.90;;;;;;4403225;32;20170;-65
2021/08/20 00:42:46;;;;;;;24.37;18.27;;;15.00;99.90;;;;;;4395103;32;20156;-67
2021/08/20 00:45:13;;;;;;;21.40;17.20;;;15.00;99.90;;;;;;4407840;32;20211;-66
2021/08/20 00:47:41;;;;;;;25.83;17.13;;;14.90;99.90;;;;;;4407857;32;20629;-65
2021/08/20 00:50:10;;;;;;;22.13;17.10;;;14.90;99.90;;;;;;4408248;32;20168;-66
2021/08/20 00:52:37;;;;;;;24.67;17.80;;;14.80;99.90;;;;;;4407719;32;20207;-65
2021/08/20 00:55:05;;;;;;;22.70;18.07;;;14.80;99.90;;;;;;4399192;32;20499;-66
2021/08/20 00:57:32;;;;;;;24.27;18.57;;;14.80;99.90;;;;;;4393193;32;20499;-66
2021/08/20 00:59:59;;;;;;;23.87;17.23;;;14.80;99.90;;;;;;4400997;32;20144;-65
2021/08/20 01:02:26;;;;;;;20.37;17.17;;;14.80;99.90;;;;;;4408345;32;20148;-66
2021/08/20 01:04:54;;;;;;;19.53;17.13;;;14.90;99.90;;;;;;4407345;32;20172;-66
2021/08/20 01:07:20;;;;;;;24.00;17.03;;;14.90;99.90;;;;;;4407760;32;20166;-67
2021/08/20 01:09:48;;;;;;;23.97;18.17;;;15.00;99.90;;;;;;4406114;32;20255;-66
2021/08/20 01:12:15;;;;;;;27.67;17.60;;;15.00;99.90;;;;;;4408287;32;20148;-65
2021/08/20 01:14:41;;;;;;;24.80;17.87;;;15.00;99.90;;;;;;4405215;32;20583;-68
2021/08/20 01:17:09;;;;;;;23.37;16.87;;;15.00;99.90;;;;;;4407618;32;20595;-65
2021/08/20 01:19:37;;;;;;;23.93;19.20;;;15.10;99.90;;;;;;4406109;32;20147;-65
2021/08/20 01:22:08;;;;;;;24.40;18.90;;;15.10;99.90;;;;;;4407995;32;20205;-66
2021/08/20 01:24:35;;;;;;;24.37;18.33;;;15.10;99.90;;;;;;4407796;32;20147;-66
2021/08/20 01:27:04;;;;;;;25.80;17.23;;;15.10;99.90;;;;;;4407159;32;20201;-65
2021/08/20 01:29:32;;;;;;;24.77;17.77;;;15.00;99.90;;;;;;4401263;32;20274;-64
2021/08/20 01:31:59;;;;;;;25.77;18.70;;;14.90;99.90;;;;;;4406382;32;20162;-66
2021/08/20 01:34:25;;;;;;;25.23;18.47;;;14.90;99.90;;;;;;4406374;32;20156;-66
2021/08/20 01:36:52;;;;;;;26.03;18.67;;;14.80;99.90;;;;;;4391912;32;20607;-66
2021/08/20 01:39:19;;;;;;;24.97;19.83;;;14.70;99.90;;;;;;4398447;32;20148;-65
2021/08/20 01:41:46;;;;;;;28.73;18.83;;;14.60;99.90;;;;;;4397046;32;20187;-65
2021/08/20 01:44:14;;;;;;;27.63;19.97;;;14.50;99.90;;;;;;4407081;32;20167;-66
2021/08/20 01:46:41;;;;;;;26.60;19.17;;;14.50;99.90;;;;;;4394468;32;20207;-66
2021/08/20 01:49:10;;;;;;;25.90;19.23;;;14.50;99.90;;;;;;4396746;32;20579;-66
2021/08/20 01:51:36;;;;;;;27.40;20.13;;;14.40;99.90;;;;;;4397974;32;20257;-64
2021/08/20 01:54:04;;;;;;;27.43;20.13;;;14.50;99.90;;;;;;4392951;32;20239;-66
2021/08/20 01:56:34;;;;;;;25.17;19.10;;;14.40;99.90;;;;;;4393918;32;20164;-67
2021/08/20 01:59:02;;;;;;;29.03;19.93;;;14.40;99.90;;;;;;4405860;32;20227;-64
2021/08/20 02:01:31;;;;;;;24.83;19.07;;;14.40;99.90;;;;;;4407412;32;20267;-65
2021/08/20 02:03:59;;;;;;;27.10;20.13;;;14.30;99.90;;;;;;4403356;32;20156;-67
2021/08/20 02:06:26;;;;;;;25.73;20.10;;;14.40;99.90;;;;;;4407274;32;20160;-66
2021/08/20 02:08:52;;;;;;;30.17;20.83;;;14.50;99.90;;;;;;4406531;32;20152;-66
2021/08/20 02:11:19;;;;;;;28.73;20.03;;;14.60;99.90;;;;;;4405641;32;20144;-66
2021/08/20 02:13:46;;;;;;;27.53;21.63;;;14.60;99.90;;;;;;4398451;32;20531;-64
2021/08/20 02:16:13;;;;;;;29.97;21.37;;;14.70;99.90;;;;;;4398391;32;20175;-64
2021/08/20 02:18:41;;;;;;;31.00;20.10;;;14.70;99.90;;;;;;4406523;32;20165;-65
2021/08/20 02:21:08;;;;;;;24.90;19.20;;;14.70;99.90;;;;;;4403944;32;20183;-65
2021/08/20 02:23:37;;;;;;;25.20;19.23;;;14.80;99.90;;;;;;4406473;32;20178;-66
2021/08/20 02:26:04;;;;;;;28.87;20.63;;;14.80;99.90;;;;;;4405069;32;20182;-65
2021/08/20 02:28:30;;;;;;;29.73;21.23;;;14.90;99.90;;;;;;4406368;32;20226;-66
2021/08/20 02:31:00;;;;;;;31.57;21.07;;;14.90;99.90;;;;;;4416031;32;20159;-65
2021/08/20 02:33:27;;;;;;;28.83;19.50;;;14.90;99.90;;;;;;4406300;32;20500;-66
2021/08/20 02:35:55;;;;;;;32.80;22.63;;;14.90;99.90;;;;;;4405250;32;20187;-64
2021/08/20 02:38:22;;;;;;;27.57;19.73;;;14.90;99.90;;;;;;4393848;32;20160;-68
2021/08/20 02:40:48;;;;;;;27.73;20.33;;;14.90;99.90;;;;;;4398045;32;20206;-65
2021/08/20 02:43:15;;;;;;;29.00;20.93;;;14.90;99.90;;;;;;4398263;32;20555;-66
2021/08/20 02:45:42;;;;;;;25.73;19.53;;;15.00;99.90;;;;;;4399638;32;20152;-65
2021/08/20 02:48:09;;;;;;;30.40;22.30;;;15.00;99.90;;;;;;4405574;32;20203;-66
2021/08/20 02:50:35;;;;;;;30.43;20.40;;;15.00;99.90;;;;;;4405181;32;20186;-65
2021/08/20 02:53:04;;;;;;;29.23;20.70;;;15.00;99.90;;;;;;4407022;32;20215;-67
2021/08/20 02:55:30;;;;;;;30.13;21.60;;;14.90;99.90;;;;;;4405270;32;20148;-65
2021/08/20 02:57:57;;;;;;;25.27;19.37;;;14.90;99.90;;;;;;4404650;32;20600;-65
2021/08/20 03:00:24;;;;;;;28.37;19.87;;;14.80;99.90;;;;;;4405854;32;20172;-65
2021/08/20 03:02:51;;;;;;;27.43;21.10;;;14.70;99.90;;;;;;4391652;32;20167;-65
2021/08/20 03:05:18;;;;;;;32.73;20.87;;;14.80;99.90;;;;;;4396353;32;20206;-65
2021/08/20 03:07:45;;;;;;;26.67;20.83;;;14.80;99.90;;;;;;4405072;32;20219;-65
2021/08/20 03:10:15;;;;;;;31.63;21.63;;;14.80;99.90;;;;;;4405737;32;20166;-64
2021/08/20 03:12:42;;;;;;;28.83;20.37;;;14.80;99.90;;;;;;4398059;32;20211;-65
2021/08/20 03:15:09;;;;;;;30.07;21.80;;;14.90;99.90;;;;;;4406273;32;20245;-64
2021/08/20 03:17:36;;;;;;;30.57;20.87;;;14.90;99.90;;;;;;4402862;32;20239;-66
2021/08/20 03:20:04;;;;;;;31.23;21.60;;;15.00;99.90;;;;;;4401594;32;20483;-64
2021/08/20 03:22:31;;;;;;;26.83;20.73;;;15.00;99.90;;;;;;4404266;32;20520;-67
2021/08/20 03:24:58;;;;;;;30.57;21.30;;;15.00;99.90;;;;;;4405609;32;20156;-66
2021/08/20 03:27:26;;;;;;;26.30;19.70;;;15.00;99.90;;;;;;4404259;32;20173;-65
2021/08/20 03:29:53;;;;;;;29.57;21.10;;;15.10;99.90;;;;;;4397246;32;20172;-65
2021/08/20 03:32:20;;;;;;;31.23;21.00;;;15.10;99.90;;;;;;4402815;32;20198;-65
2021/08/20 03:34:47;;;;;;;28.43;20.27;;;15.10;99.90;;;;;;4391646;32;20139;-65
2021/08/20 03:37:14;;;;;;;34.10;23.10;;;15.10;99.90;;;;;;4406313;32;20154;-67
2021/08/20 03:39:41;;;;;;;30.93;21.80;;;15.00;99.90;;;;;;4404668;32;20148;-65
2021/08/20 03:42:08;;;;;;;29.77;21.63;;;15.00;99.90;;;;;;4401834;32;20233;-66
2021/08/20 03:44:36;;;;;;;29.10;21.47;;;14.90;99.90;;;;;;4404160;32;20194;-65
2021/08/20 03:47:04;;;;;;;29.83;21.73;;;14.90;99.90;;;;;;4403250;32;20174;-66
2021/08/20 03:49:30;;;;;;;30.57;21.80;;;14.80;99.90;;;;;;4405410;32;20159;-65
2021/08/20 03:51:57;;;;;;;31.13;21.27;;;14.80;99.90;;;;;;4401266;32;20593;-65
2021/08/20 03:54:24;;;;;;;33.73;22.43;;;14.70;99.90;;;;;;4405010;32;20186;-67
2021/08/20 03:56:51;;;;;;;34.33;22.33;;;14.70;99.90;;;;;;4395567;32;20579;-65
2021/08/20 03:59:18;;;;;;;36.63;22.60;;;14.70;99.90;;;;;;4405168;32;20610;-63
2021/08/20 04:01:46;;;;;;;30.23;21.83;;;14.80;99.90;;;;;;4403187;32;20167;-66
2021/08/20 04:04:13;;;;;;;35.17;22.50;;;14.80;99.90;;;;;;4405470;32;20613;-66
2021/08/20 04:06:40;;;;;;;29.57;22.33;;;14.90;99.90;;;;;;4397299;32;20186;-66
2021/08/20 04:09:06;;;;;;;37.70;22.73;;;15.00;99.90;;;;;;4406271;32;20578;-66
2021/08/20 04:11:33;;;;;;;31.20;22.27;;;15.00;99.90;;;;;;4404472;32;20143;-67
2021/08/20 04:14:01;;;;;;;34.37;22.57;;;15.00;99.90;;;;;;4405683;32;20500;-67
2021/08/20 04:16:28;;;;;;;33.43;22.87;;;15.10;99.90;;;;;;4405021;32;20193;-65
2021/08/20 04:18:56;;;;;;;33.40;22.30;;;15.10;99.90;;;;;;4405230;32;20163;-63
2021/08/20 04:21:23;;;;;;;33.07;22.53;;;15.20;99.90;;;;;;4399799;32;20527;-66
2021/08/20 04:23:50;;;;;;;36.00;22.20;;;15.20;99.90;;;;;;4408325;32;20183;-66
2021/08/20 04:26:17;;;;;;;36.07;21.73;;;15.30;99.90;;;;;;4401136;32;20226;-66
2021/08/20 04:28:44;;;;;;;34.90;22.87;;;15.30;99.90;;;;;;4400304;32;20156;-66
2021/08/20 04:31:11;;;;;;;32.83;22.60;;;15.40;99.90;;;;;;4401904;32;20168;-65
2021/08/20 04:33:38;;;;;;;31.37;22.23;;;15.40;99.90;;;;;;4400917;32;20156;-66
2021/08/20 04:36:06;;;;;;;31.30;21.77;;;15.40;99.90;;;;;;4403228;32;20174;-65
2021/08/20 04:38:33;;;;;;;31.47;21.80;;;15.40;99.90;;;;;;4394277;32;20464;-65
2021/08/20 04:41:00;;;;;;;33.50;23.63;;;15.50;99.90;;;;;;4404870;32;20235;-65
2021/08/20 04:43:26;;;;;;;29.90;20.73;;;15.50;99.90;;;;;;4407317;32;20575;-65
2021/08/20 04:45:53;;;;;;;30.07;20.63;;;15.50;99.90;;;;;;4405971;32;20155;-64
2021/08/20 04:48:20;;;;;;;32.30;22.20;;;15.50;99.90;;;;;;4408028;32;20217;-65
2021/08/20 04:50:50;;;;;;;29.87;20.80;;;15.60;99.90;;;;;;4401984;32;20174;-66
2021/08/20 04:53:18;;;;;;;31.83;21.43;;;15.60;99.90;;;;;;4402099;32;20168;-65
2021/08/20 04:55:45;;;;;;;37.83;23.37;;;15.70;99.90;;;;;;4401882;32;20166;-65
2021/08/20 04:58:12;;;;;;;33.90;21.33;;;15.70;99.90;;;;;;4408884;32;20228;-65
2021/08/20 05:00:42;;;;;;;31.53;22.33;;;15.80;99.90;;;;;;4407852;32;20239;-64
2021/08/20 05:03:09;;;;;;;36.47;23.57;;;15.70;99.90;;;;;;4407918;32;20155;-66
2021/08/20 05:05:36;;;;;;;31.97;21.57;;;15.80;99.90;;;;;;4404892;32;20198;-66
2021/08/20 05:08:04;;;;;;;35.57;22.20;;;15.90;99.90;;;;;;4397913;32;20577;-64
2021/08/20 05:10:33;;;;;;;33.77;22.40;;;15.90;99.90;;;;;;4392917;32;20683;-65
2021/08/20 05:13:00;;;;;;;32.53;21.20;;;15.90;99.90;;;;;;4401901;32;20546;-65
2021/08/20 05:15:27;;;;;;;30.60;21.47;;;16.00;99.90;;;;;;4409307;32;20143;-65
2021/08/20 05:17:54;;;;;;;35.73;22.27;;;16.00;99.90;;;;;;4406065;32;20143;-64
2021/08/20 05:20:21;;;;;;;34.43;21.90;;;16.00;99.90;;;;;;4407296;32;20172;-64
2021/08/20 05:22:51;;;;;;;27.80;19.40;;;16.00;99.90;;;;;;4408037;32;20156;-65
2021/08/20 05:25:18;;;;;;;32.00;20.80;;;16.10;99.90;;;;;;4405772;32;20148;-66
2021/08/20 05:27:47;;;;;;;31.60;20.17;;;16.10;99.90;;;;;;4398594;32;20182;-64
2021/08/20 05:30:15;;;;;;;31.53;21.50;;;16.10;99.90;;;;;;4409752;32;20182;-65
2021/08/20 05:32:42;;;;;;;32.87;22.13;;;16.10;99.90;;;;;;4397289;32;20179;-64
2021/08/20 05:35:11;;;;;;;29.20;19.97;;;16.10;99.90;;;;;;4406729;32;20595;-64
2021/08/20 05:37:39;;;;;;;32.20;21.90;;;16.10;99.90;;;;;;4405810;32;20175;-64
2021/08/20 05:40:07;;;;;;;29.90;20.83;;;16.10;99.90;;;;;;4405114;32;20238;-65
2021/08/20 05:42:33;;;;;;;29.80;21.13;;;16.10;99.90;;;;;;4406775;32;20583;-65
2021/08/20 05:45:02;;;;;;;32.73;21.67;;;16.00;99.90;;;;;;4406256;32;20169;-64
2021/08/20 05:47:28;;;;;;;35.67;21.00;;;16.10;99.90;;;;;;4405251;32;20610;-64
2021/08/20 05:49:55;;;;;;;32.87;21.43;;;16.20;99.90;;;;;;4406861;32;20152;-64
2021/08/20 05:52:22;;;;;;;34.03;21.90;;;16.20;99.90;;;;;;4408257;32;20183;-65
2021/08/20 05:54:49;;;;;;;35.60;21.60;;;16.30;99.90;;;;;;4405775;32;20170;-64
2021/08/20 05:57:16;;;;;;;30.10;20.87;;;16.30;99.90;;;;;;4393659;32;20171;-63
2021/08/20 05:59:42;;;;;;;29.67;20.83;;;16.30;99.90;;;;;;4395076;32;20227;-64
2021/08/20 06:02:10;;;;;;;29.67;19.63;;;16.40;99.90;;;;;;4396756;32;20634;-64
2021/08/20 06:04:37;;;;;;;31.00;20.53;;;16.50;99.90;;;;;;4395646;32;20160;-64
2021/08/20 06:07:06;;;;;;;26.53;19.77;;;16.80;99.90;;;;;;4403945;32;20223;-64
2021/08/20 06:09:33;;;;;;;25.30;19.37;;;17.20;99.90;;;;;;4393870;32;20164;-64
2021/08/20 06:12:03;;;;;;;30.53;21.00;;;17.50;99.90;;;;;;4407942;32;20518;-63
2021/08/20 06:14:29;;;;;;;23.93;17.57;;;17.70;99.90;;;;;;4398118;32;20164;-63
2021/08/20 06:16:56;;;;;;;29.57;17.87;;;17.70;99.90;;;;;;4392321;32;20207;-64
2021/08/20 06:19:37;;;;;;;27.60;19.20;;;17.80;99.90;;;;;;4395627;32;20188;-63
2021/08/20 06:22:04;;;;;;;28.37;19.23;;;17.80;99.90;;;;;;4398001;32;20193;-64
2021/08/20 06:24:31;;;;;;;28.83;17.70;;;17.90;99.90;;;;;;4404767;32;20612;-64
2021/08/20 06:26:58;;;;;;;32.83;20.23;;;18.10;99.90;;;;;;4403826;32;20235;-63
2021/08/20 06:29:25;;;;;;;28.40;17.67;;;18.10;99.90;;;;;;4406124;32;20182;-62
2021/08/20 06:31:52;;;;;;;25.23;17.17;;;18.10;99.90;;;;;;4404040;32;20182;-62
2021/08/20 06:34:19;;;;;;;28.23;19.03;;;18.20;99.90;;;;;;4402136;32;20170;-64
2021/08/20 06:36:47;;;;;;;26.73;18.20;;;18.30;99.90;;;;;;4394869;32;21125;-64
2021/08/20 06:39:14;;;;;;;27.27;17.30;;;18.40;99.90;;;;;;4401994;32;20144;-66
2021/08/20 06:41:41;;;;;;;23.73;16.23;;;18.60;99.90;;;;;;4396699;32;20140;-64
2021/08/20 06:44:11;;;;;;;26.97;17.30;;;18.60;99.90;;;;;;4394531;32;20232;-65
2021/08/20 06:46:43;;;;;;;23.30;17.00;;;18.50;99.90;;;;;;4397247;32;20610;-64
2021/08/20 06:49:10;;;;;;;23.07;15.97;;;18.50;99.90;;;;;;4395971;32;20178;-66
2021/08/20 06:51:41;;;;;;;28.57;17.73;;;18.40;99.90;;;;;;4401133;32;20182;-67
2021/08/20 06:54:14;;;;;;;27.20;16.63;;;18.60;99.90;;;;;;4399278;32;20178;-63
2021/08/20 06:56:41;;;;;;;21.80;14.73;;;19.00;99.90;;;;;;4398803;32;20136;-64
2021/08/20 06:59:08;;;;;;;22.60;16.07;;;19.20;99.90;;;;;;4401652;32;20561;-65
2021/08/20 07:01:35;;;;;;;23.17;15.03;;;19.50;99.90;;;;;;4402602;32;20139;-67
2021/08/20 07:04:03;;;;;;;26.23;15.87;;;20.00;99.90;;;;;;4401541;32;20247;-66
2021/08/20 07:06:30;;;;;;;22.37;15.83;;;20.00;99.90;;;;;;4403346;32;20159;-63
2021/08/20 07:08:57;;;;;;;20.70;14.90;;;19.90;99.90;;;;;;4400617;32;20152;-65
2021/08/20 07:11:25;;;;;;;20.50;14.63;;;20.00;99.90;;;;;;4397945;32;20203;-66
2021/08/20 07:13:52;;;;;;;21.10;15.60;;;20.20;99.90;;;;;;4401032;32;20147;-65
2021/08/20 07:16:20;;;;;;;18.47;13.63;;;20.50;99.90;;;;;;4399327;32;20164;-67
2021/08/20 07:18:46;;;;;;;21.80;14.80;;;20.70;99.90;;;;;;4393525;32;20182;-65
2021/08/20 07:21:13;;;;;;;17.40;13.33;;;20.80;99.90;;;;;;4395260;32;20542;-66
2021/08/20 07:23:40;;;;;;;17.97;13.30;;;20.80;99.90;;;;;;4398114;32;20613;-66
2021/08/20 07:26:07;;;;;;;16.33;13.47;;;20.50;99.90;;;;;;4397816;32;20247;-67
2021/08/20 07:28:36;;;;;;;17.10;12.80;;;20.20;99.90;;;;;;4403086;32;20144;-66
2021/08/20 07:31:03;;;;;;;20.10;13.83;;;20.10;99.90;;;;;;4404274;32;20166;-65
2021/08/20 07:33:31;;;;;;;15.37;11.63;;;20.20;99.90;;;;;;4401528;32;20591;-65
2021/08/20 07:35:58;;;;;;;17.00;12.83;;;20.40;99.90;;;;;;4404568;32;20176;-66
2021/08/20 07:38:25;;;;;;;17.63;13.07;;;20.60;99.90;;;;;;4402264;32;20227;-67
2021/08/20 07:40:51;;;;;;;18.80;13.73;;;20.80;99.90;;;;;;4402706;32;20227;-65
2021/08/20 07:43:18;;;;;;;16.83;12.50;;;21.10;99.90;;;;;;4403054;32;20170;-65
2021/08/20 07:45:46;;;;;;;16.80;12.07;;;21.30;99.90;;;;;;4401239;32;20163;-66
2021/08/20 07:48:13;;;;;;;16.47;12.37;;;21.40;99.90;;;;;;4402993;32;20268;-66
2021/08/20 07:50:41;;;;;;;17.27;12.47;;;22.70;99.90;;;;;;4402196;32;20512;-66
2021/08/20 07:53:08;;;;;;;14.57;11.70;;;23.80;99.90;;;;;;4401980;32;20177;-66
2021/08/20 07:55:35;;;;;;;15.50;11.43;;;23.70;99.90;;;;;;4402542;32;20168;-67
2021/08/20 07:58:02;;;;;;;14.43;11.57;;;23.70;99.90;;;;;;4403454;32;20167;-67
2021/08/20 08:00:31;;;;;;;13.67;10.97;;;23.40;99.90;;;;;;4400519;32;20560;-67
2021/08/20 08:03:00;;;;;;;13.80;10.70;;;23.50;99.90;;;;;;4402829;32;20515;-68
2021/08/20 08:05:32;;;;;;;16.27;11.20;;;23.30;99.90;;;;;;4404567;32;20186;-65
2021/08/20 08:08:00;;;;;;;18.37;12.37;;;22.50;99.90;;;;;;4400764;32;20139;-65
2021/08/20 08:10:27;;;;;;;14.03;11.27;;;21.90;99.90;;;;;;4402408;32;20144;-65
2021/08/20 08:12:55;;;;;;;15.53;12.03;;;21.50;99.90;;;;;;4394083;32;20227;-65
2021/08/20 08:15:24;;;;;;;15.67;13.27;;;21.40;99.90;;;;;;4402430;32;20155;-66
2021/08/20 08:17:55;;;;;;;17.57;13.17;;;21.60;99.90;;;;;;4400621;32;20568;-67
2021/08/20 08:20:24;;;;;;;15.50;11.93;;;21.70;99.90;;;;;;4402028;32;20201;-65
2021/08/20 08:22:51;;;;;;;16.30;13.20;;;22.20;99.90;;;;;;4402864;32;20237;-66
2021/08/20 08:25:19;;;;;;;19.77;13.73;;;23.70;99.90;;;;;;4399312;32;20227;-64
2021/08/20 08:27:53;;;;;;;13.60;12.00;;;24.10;99.90;;;;;;4402375;32;20152;-65
2021/08/20 08:30:20;;;;;;;14.60;12.93;;;23.60;99.90;;;;;;4400152;32;20162;-66
2021/08/20 08:32:47;;;;;;;14.93;13.30;;;22.90;99.90;;;;;;4402925;32;20270;-65
2021/08/20 08:35:14;;;;;;;15.47;12.23;;;22.60;99.90;;;;;;4401162;32;20431;-66
2021/08/20 08:37:42;;;;;;;12.87;10.77;;;22.50;99.90;;;;;;4400993;32;20576;-66
2021/08/20 08:40:10;;;;;;;14.47;11.73;;;22.80;99.90;;;;;;4401808;32;20148;-66
2021/08/20 08:42:38;;;;;;;13.37;10.77;;;22.30;99.90;;;;;;4401589;32;20143;-66
2021/08/20 08:45:07;;;;;;;14.33;11.60;;;21.80;99.90;;;;;;4401140;32;20151;-67
2021/08/20 08:47:35;;;;;;;15.13;11.70;;;21.70;99.90;;;;;;4403110;32;20223;-66
2021/08/20 08:50:04;;;;;;;12.13;10.33;;;22.00;99.90;;;;;;4400291;32;20162;-66
2021/08/20 08:52:32;;;;;;;15.67;11.63;;;22.50;99.90;;;;;;4399943;32;20144;-65
2021/08/20 08:55:03;;;;;;;13.47;11.93;;;23.70;99.90;;;;;;4398805;32;20174;-65
2021/08/20 08:57:30;;;;;;;12.53;9.47;;;26.10;99.90;;;;;;4400982;32;20145;-66
2021/08/20 08:59:57;;;;;;;14.63;10.37;;;25.40;99.90;;;;;;4399017;32;20156;-66
2021/08/20 09:02:26;;;;;;;16.37;10.67;;;24.30;99.90;;;;;;4400873;32;20201;-67
2021/08/20 09:04:55;;;;;;;10.50;9.30;;;23.10;99.90;;;;;;4396503;32;20198;-69
2021/08/20 09:07:24;;;;;;;14.57;10.13;;;22.40;99.90;;;;;;4404854;32;20183;-64
2021/08/20 09:10:19;;;;;;;10.83;8.53;;;21.80;99.90;;;;;;4401778;32;20140;-66
2021/08/20 09:12:55;;;;;;;10.17;7.83;;;21.80;99.90;;;;;;4405433;32;20163;-65
2021/08/20 09:15:25;;;;;;;11.77;8.17;;;22.10;99.90;;;;;;4401338;32;20183;-65
2021/08/20 09:17:53;;;;;;;8.30;7.13;;;22.30;99.90;;;;;;4407070;32;20231;-66
2021/08/20 09:20:23;;;;;;;7.47;6.23;;;23.90;99.90;;;;;;4405806;32;20166;-66
2021/08/20 09:22:51;;;;;;;9.63;5.93;;;24.90;99.90;;;;;;4406456;32;20550;-66
2021/08/20 09:25:38;;;;;;;10.85;7.10;;;25.40;99.90;;;;;;4400577;32;20164;-66
2021/08/20 09:28:20;;;;;;;9.85;6.90;;;25.50;99.90;;;;;;4406114;32;20553;-66
2021/08/20 09:31:11;;;;;;;9.95;6.87;;;25.50;99.90;;;;;;4401360;32;20167;-66
2021/08/20 09:33:48;;;;;;;10.23;6.90;;;25.50;99.90;;;;;;4405108;32;20207;-65
2021/08/20 09:36:16;;;;;;;6.87;6.17;;;26.10;99.90;;;;;;4403316;32;20147;-66
2021/08/20 09:38:46;;;;;;;8.70;6.75;;;26.30;99.90;;;;;;4404366;32;20230;-65
2021/08/20 09:41:16;;;;;;;11.93;8.02;;;26.00;99.90;;;;;;4405378;32;20155;-66
2021/08/20 09:43:46;;;;;;;9.35;7.53;;;25.30;99.90;;;;;;4404637;32;20156;-65
2021/08/20 09:46:15;;;;;;;10.48;9.40;;;24.30;99.90;;;;;;4406700;32;20152;-66
2021/08/20 09:48:53;;;;;;;9.88;8.88;;;23.60;99.90;;;;;;4407188;32;20154;-66
2021/08/20 09:51:43;;;;;;;14.63;8.88;;;23.00;99.90;;;;;;4403509;32;20186;-66
2021/08/20 09:54:13;;;;;;;9.43;8.10;;;22.70;99.90;;;;;;4404139;32;20200;-68
2021/08/20 09:56:41;;;;;;;12.17;9.27;;;22.70;99.90;;;;;;4403601;32;20179;-66
2021/08/20 09:59:10;;;;;;;14.00;10.93;;;22.80;99.90;;;;;;4400860;32;20483;-66
2021/08/20 10:01:38;;;;;;;12.07;9.80;;;23.10;99.90;;;;;;4401581;32;20198;-65
2021/08/20 10:04:07;;;;;;;9.87;8.87;;;23.80;99.90;;;;;;4399204;32;22325;-65
2021/08/20 10:06:36;;;;;;;14.73;10.30;;;24.00;99.90;;;;;;4403430;32;20448;-67
2021/08/20 10:09:06;;;;;;;11.20;9.23;;;24.10;99.90;;;;;;4402456;32;20611;-67
2021/08/20 10:11:36;;;;;;;14.13;11.47;;;24.00;99.90;;;;;;4393406;32;20579;-67
2021/08/20 10:14:05;;;;;;;10.77;9.57;;;23.50;99.90;;;;;;4396132;32;20627;-69
2021/08/20 10:16:34;;;;;;;11.47;10.03;;;23.40;99.90;;;;;;4402286;32;20171;-69
2021/08/20 10:19:02;;;;;;;10.53;9.50;;;23.40;99.90;;;;;;4401485;32;20148;-67
2021/08/20 10:21:31;;;;;;;8.93;7.83;;;23.60;99.90;;;;;;4399275;32;20171;-67
2021/08/20 10:23:59;;;;;;;8.75;7.72;;;23.80;99.90;;;;;;4393363;32;20203;-66
2021/08/20 10:26:26;;;;;;;8.02;7.20;;;24.10;99.90;;;;;;4400459;32;20171;-66
2021/08/20 10:28:54;;;;;;;9.03;6.73;;;24.00;99.90;;;;;;4401221;32;20166;-66
2021/08/20 10:31:24;;;;;;;6.90;6.30;;;24.10;99.90;;;;;;4399362;32;20555;-66
2021/08/20 10:33:51;;;;;;;7.22;6.20;;;24.40;99.90;;;;;;4398436;32;20185;-66
2021/08/20 10:36:36;;;;;;;7.78;6.60;;;24.80;99.90;;;;;;4403223;32;20147;-66
2021/08/20 10:39:04;;;;;;;8.48;5.70;;;24.80;99.90;;;;;;4405430;32;20148;-66
2021/08/20 10:41:31;;;;;;;8.73;6.18;;;25.00;99.90;;;;;;4406249;32;20238;-66
2021/08/20 10:44:03;;;;;;;8.70;6.62;;;25.20;99.90;;;;;;4400808;32;20152;-67
2021/08/20 10:47:00;;;;;;;8.75;6.53;;;25.50;99.90;;;;;;4402197;32;20151;-66
2021/08/20 10:49:40;;;;;;;8.73;6.65;;;25.70;99.90;;;;;;4399121;32;20250;-66
2021/08/20 10:52:07;;;;;;;7.70;6.00;;;25.70;99.90;;;;;;4398458;32;20163;-65
2021/08/20 10:55:09;;;;;;;6.85;5.62;;;25.40;99.90;;;;;;4394205;32;20233;-67
2021/08/20 10:58:13;;;;;;;7.45;5.47;;;25.00;99.90;;;;;;4400064;32;20625;-66
2021/08/20 11:00:42;;;;;;;8.15;5.60;;;24.80;99.90;;;;;;4396824;32;20147;-65
2021/08/20 11:03:11;;;;;;;6.35;5.62;;;25.00;99.90;;;;;;4400587;32;20174;-66
2021/08/20 11:05:44;;;;;;;9.38;6.37;;;25.00;99.90;;;;;;4309707;32;2405936;-66
2021/08/20 11:08:41;;;;;;;7.10;6.30;;;25.00;99.90;;;;;;4384418;32;20195;-66
2021/08/20 11:11:41;;;;;;;7.15;5.53;;;25.00;99.90;;;;;;4329348;33;20196;-65
2021/08/20 11:14:38;;;;;;;10.80;6.18;;;25.40;99.90;;;;;;4324547;33;20247;-67
2021/08/20 11:17:07;;;;;;;7.12;6.12;;;25.80;99.90;;;;;;4285913;33;20245;-65
2021/08/20 11:19:56;;;;;;;9.23;5.47;;;26.20;99.90;;;;;;4284568;33;20186;-66
2021/08/20 11:22:29;;;;;;;8.27;5.40;;;26.60;99.90;;;;;;4257319;33;20235;-65
2021/08/20 11:25:22;;;;;;;6.18;5.40;;;27.10;99.90;;;;;;4250399;33;20221;-66
2021/08/20 11:28:04;;;;;;;5.65;4.68;;;27.10;99.60;;;;;;4255259;33;20238;-65
2021/08/20 11:30:33;;;;;;;5.72;4.68;;;26.90;99.60;;;;;;4253703;33;20277;-66
2021/08/20 11:33:12;;;;;;;6.97;6.30;;;26.80;99.90;;;;;;4257080;33;20189;-64
2021/08/20 11:35:38;;;;;;;5.97;4.47;;;27.00;99.30;;;;;;4259563;33;20214;-66
2021/08/20 11:38:07;;;;;;;6.37;4.35;;;26.90;99.10;;;;;;4261372;33;20170;-66
2021/08/20 11:40:46;;;;;;;5.85;4.90;;;26.60;99.90;;;;;;4261944;33;20175;-66
2021/08/20 11:43:12;;;;;;;6.40;5.35;;;26.50;99.90;;;;;;4262798;33;20246;-66
2021/08/20 11:45:39;;;;;;;7.72;4.40;;;26.30;99.90;;;;;;4261334;33;20238;-64
2021/08/20 11:48:06;;;;;;;8.15;6.45;;;26.50;99.90;;;;;;4311255;33;20310;-65
2021/08/20 11:50:34;;;;;;;5.87;5.35;;;26.60;99.60;;;;;;4316534;33;20196;-67
2021/08/20 11:53:02;;;;;;;6.43;5.10;;;26.60;99.90;;;;;;4351572;33;20243;-66
2021/08/20 11:55:30;;;;;;;5.87;4.07;;;26.70;99.00;;;;;;4342383;33;20231;-65
2021/08/20 11:57:57;;;;;;;5.85;4.45;;;26.60;98.50;;;;;;4351578;33;20168;-66
2021/08/20 12:00:37;;;;;;;4.72;3.70;;;26.50;99.10;;;;;;4383158;32;20211;-65
2021/08/20 12:03:08;;;;;;;6.90;4.45;;;26.50;99.80;;;;;;4389654;32;20240;-65
2021/08/20 12:05:35;;;;;;;6.50;3.72;;;26.40;99.60;;;;;;4386627;32;20190;-65
2021/08/20 12:08:15;;;;;;;6.22;3.70;;;26.50;99.80;;;;;;4385707;32;20591;-65
2021/08/20 12:10:49;;;;;;;5.25;4.05;;;26.50;99.90;;;;;;4387529;32;20186;-65
2021/08/20 12:13:16;;;;;;;5.85;3.80;;;26.20;99.50;;;;;;4384447;32;20531;-65
2021/08/20 12:15:43;;;;;;;5.28;3.37;;;25.90;99.90;;;;;;4384990;32;20156;-66
2021/08/20 12:18:23;;;;;;;4.87;4.25;;;26.00;99.90;;;;;;4387926;32;20172;-64
2021/08/20 12:20:51;;;;;;;7.00;4.45;;;26.30;99.90;;;;;;4388177;32;20195;-66
2021/08/20 12:23:18;;;;;;;9.73;4.50;;;26.50;99.70;;;;;;4384493;32;20210;-66
2021/08/20 12:25:47;;;;;;;6.80;4.25;;;26.70;99.60;;;;;;4387234;32;20496;-66
2021/08/20 12:28:15;;;;;;;6.78;4.97;;;26.90;99.60;;;;;;4387362;32;20214;-65
2021/08/20 12:30:44;;;;;;;5.62;4.37;;;27.00;99.00;;;;;;4387831;32;20601;-66
2021/08/20 12:33:11;;;;;;;6.78;4.60;;;27.10;98.60;;;;;;4385843;32;20187;-66
2021/08/20 12:35:50;;;;;;;5.50;4.47;;;26.90;98.70;;;;;;4386692;32;20939;-67
2021/08/20 12:38:18;;;;;;;4.93;4.22;;;26.70;98.40;;;;;;4387458;32;20159;-67
2021/08/20 12:40:48;;;;;;;5.68;4.32;;;26.30;98.30;;;;;;4389618;32;20164;-66